Météo Cheval Rigon

 

Relevés d'aujourd'hui



 

19/10/18
Time         Wind Dir   Wind Spd  Wind Gust   Humidity       Temp   Tot Rain Wind Chill  Dew Point   Barom SL Humidity R Temp Out R Tot Rain R   WindCh R   Dew Pt R SL Barom R Temp Out H Temp Out L  DailyRain   HourRain   24HrRain   RainRate  MonthRain
                          km/hr      km/hr          %         C         mm         C         C         mb       %/hr      C/hr      mm/hr      C/hr      C/hr      mm/hr         C         C         mm         mm         mm      mm/hr         mm
0:00               13          0          0         75       12.4     754.60       12.4        8.1    1017.58        2.4      -0.81      0.000      -0.81      -0.29      0.101       12.4       12.4       0.00       0.00       0.00      0.000      15.00
0:15               13          0          0         76       12.4     754.60       12.4        8.3    1017.62        2.7      -0.62      0.000      -0.62      -0.05      0.107       12.4       12.4       0.00       0.00       0.00      0.000      15.00
0:30               13          0          0         76       12.3     754.60       12.3        8.2    1017.55        2.1      -0.59      0.000      -0.59      -0.14      0.021       12.4       12.3       0.00       0.00       0.00      0.000      15.00
0:45               13          0          0         77       12.2     754.60       12.2        8.3    1017.65        2.6      -0.55      0.000      -0.55      -0.02      0.104       12.4       12.2       0.00       0.00       0.00      0.000      15.00
1:00               13          0          0         77       12.2     754.60       12.2        8.3    1017.82        2.0      -0.48      0.000      -0.48      -0.06      0.228       12.4       12.2       0.00       0.00       0.00      0.000      15.00
1:15               13          0          0         77       12.1     754.60       12.1        8.2    1017.79        1.6      -0.42      0.000      -0.42      -0.10      0.155       12.4       12.1       0.00       0.00       0.00      0.000      15.00
1:30               13          0          0         78       12.0     754.60       12.0        8.3    1017.69        2.1      -0.43      0.000      -0.43      -0.01      0.026       12.4       12.0       0.00       0.00       0.00      0.000      15.00
1:45               13          0          0         78       12.0     754.60       12.0        8.3    1017.75        1.6      -0.34      0.000      -0.34      -0.01      0.079       12.4       12.0       0.00       0.00       0.00      0.000      15.00
2:00               13          0          0         78       12.1     754.60       12.1        8.4    1017.69        1.3      -0.17      0.000      -0.17       0.09      0.015       12.4       12.0       0.00       0.00       0.00      0.000      15.00
2:15               13          0          0         78       12.0     754.60       12.0        8.3    1017.75        1.0      -0.23      0.000      -0.23      -0.03      0.066       12.4       12.0       0.00       0.00       0.00      0.000      15.00
2:30               13          0          0         79       11.8     754.60       11.8        8.3    1017.69        1.7      -0.33      0.000      -0.33      -0.00     -0.011       12.4       11.8       0.00       0.00       0.00      0.000      15.00
2:45               13          0          0         81       11.4     754.60       11.4        8.3    1017.45        3.2      -0.60      0.000      -0.60       0.01     -0.205       12.4       11.4       0.00       0.00       0.00      0.000      15.00
3:00               13          0          0         82       11.2     754.60       11.2        8.2    1017.42        3.3      -0.72      0.000      -0.72      -0.08     -0.190       12.4       11.2       0.00       0.00       0.00      0.000      15.00
3:15               13          0          0         83       10.8     754.60       10.8        8.0    1017.38        3.6      -0.90      0.000      -0.90      -0.23     -0.175       12.4       10.8       0.00       0.00       0.00      0.000      15.00
3:30               13          0          0         85       10.6     754.60       10.6        8.1    1017.28        4.6      -0.89      0.000      -0.89      -0.05     -0.231       12.4       10.6       0.00       0.00       0.00      0.000      15.00
3:45               13          0          0         84       10.3     754.60       10.3        7.8    1017.31        2.7      -0.90      0.000      -0.90      -0.39     -0.157       12.4       10.3       0.00       0.00       0.00      0.000      15.00
4:00               13          0          3         84        9.9     754.60        9.9        7.3    1017.42        2.0      -1.11      0.000      -1.11      -0.71     -0.033       12.4        9.9       0.00       0.00       0.00      0.000      15.00
4:15               14          0          2         86        9.7     754.60        9.7        7.5    1017.42        3.2      -1.00      0.000      -1.00      -0.40     -0.031       12.4        9.7       0.00       0.00       0.00      0.000      15.00
4:30               14          0          0         87        9.9     754.60        9.9        7.8    1017.42        3.4      -0.62      0.000      -0.62      -0.01     -0.024       12.4        9.7       0.00       0.00       0.00      0.000      15.00
4:45               14          0          0         86       10.1     754.60       10.1        7.8    1017.48        1.8      -0.34      0.000      -0.34      -0.01      0.052       12.4        9.7       0.00       0.00       0.00      0.000      15.00
5:00               14          0          0         86        9.9     754.60        9.9        7.7    1017.48        1.4      -0.36      0.000      -0.36      -0.10      0.027       12.4        9.7       0.00       0.00       0.00      0.000      15.00
5:15               14          0          0         87       10.0     754.60       10.0        7.9    1017.52        2.0      -0.22      0.000      -0.22       0.13      0.057       12.4        9.7       0.00       0.00       0.00      0.000      15.00
5:30               14          0          0         87       10.1     754.60       10.1        8.0    1017.69        1.7      -0.13      0.000      -0.13       0.17      0.199       12.4        9.7       0.00       0.00       0.00      0.000      15.00
5:45               14          0          0         86        9.7     754.60        9.7        7.4    1017.82        0.6      -0.46      0.000      -0.46      -0.34      0.283       12.4        9.7       0.00       0.00       0.00      0.000      15.00
6:00               14          0          0         88        9.3     754.60        9.3        7.5    1017.89        2.3      -0.64      0.000      -0.64      -0.25      0.274       12.4        9.3       0.00       0.00       0.00      0.000      15.00
6:15               14          0          0         89        9.2     754.60        9.2        7.5    1017.99        2.7      -0.63      0.000      -0.63      -0.18      0.291       12.4        9.1       0.00       0.00       0.00      0.000      15.00
6:30               14          0          0         88        8.7     754.60        8.7        6.8    1018.09        1.3      -0.94      0.000      -0.94      -0.70      0.334       12.4        8.7       0.00       0.00       0.00      0.000      15.00
6:45               14          0          0         89        8.3     754.60        8.3        6.6    1018.16        1.9      -1.02      0.000      -1.02      -0.68      0.324       12.4        8.3       0.00       0.00       0.00      0.000      15.00
7:00               15          0          2         91        8.7     754.60        8.7        7.3    1018.16        3.2      -0.49      0.000      -0.49       0.04      0.261       12.4        8.3       0.00       0.00       0.00      0.000      15.00
7:15               15          0          0         91        8.7     754.60        8.7        7.3    1018.16        2.6      -0.37      0.000      -0.37       0.07      0.206       12.4        8.3       0.00       0.00       0.00      0.000      15.00
7:30               15          0          0         90        8.6     754.60        8.6        7.1    1018.30        1.2      -0.34      0.000      -0.34      -0.13      0.276       12.4        8.3       0.00       0.00       0.00      0.000      15.00
7:45               15          0          0         91        8.5     754.60        8.5        7.1    1018.33        1.8      -0.36      0.000      -0.36      -0.06      0.246       12.4        8.3       0.00       0.00       0.00      0.000      15.00
8:00               15          0          0         91        8.4     754.60        8.4        7.1    1018.43        1.4      -0.34      0.000      -0.34      -0.10      0.289       12.4        8.3       0.00       0.00       0.00      0.000      15.00
8:15               15          0          0         91        8.2     754.60        8.2        6.8    1018.53        1.1      -0.51      0.000      -0.51      -0.33      0.316       12.4        8.2       0.00       0.00       0.00      0.000      15.00
8:30               15          0          0         93        8.2     754.60        8.2        7.2    1018.63        2.6      -0.34      0.000      -0.34       0.08      0.341       12.4        8.1       0.00       0.00       0.00      0.000      15.00
8:45               15          0          0         93        8.2     754.60        8.2        7.2    1018.74        2.1      -0.27      0.000      -0.27       0.07      0.356       12.4        8.1       0.00       0.00       0.00      0.000      15.00
9:00               15          0          0         94        8.3     754.60        8.3        7.4    1018.94        2.6      -0.11      0.000      -0.11       0.30      0.453       12.4        8.1       0.00       0.00       0.00      0.000      15.00
9:15               15          0          0         94        8.6     754.60        8.6        7.6    1019.14        2.1       0.11      0.000       0.11       0.44      0.537       12.4        8.1       0.00       0.00       0.00      0.000      15.00
9:30               15          0          0         94        8.9     754.60        8.9        8.0    1019.14        1.6       0.43      0.000       0.43       0.68      0.418       12.4        8.1       0.00       0.00       0.00      0.000      15.00
9:45               15          0          0         94        9.4     754.60        9.4        8.5    1019.24        1.2       0.74      0.000       0.74       0.93      0.412       12.4        8.1       0.00       0.00       0.00      0.000      15.00
10:00              15          0          0         94       10.1     754.60       10.1        9.1    1019.38        1.0       1.17      0.000       1.17       1.31      0.434       12.4        8.1       0.00       0.00       0.00      0.000      15.00
10:15              15          0          0         94       10.7     754.60       10.7        9.8    1019.52        0.8       1.51      0.000       1.51       1.62      0.459       12.4        8.1       0.00       0.00       0.00      0.000      15.00
10:30              15          0          0         91       11.9     754.60       11.9       10.5    1019.72       -2.2       2.20      0.000       2.20       1.83      0.534       12.4        8.1       0.00       0.00       0.00      0.000      15.00
10:45              15          0          0         89       12.7     754.60       12.7       10.9    1019.79       -3.4       2.40      0.000       2.40       1.82      0.474       12.7        8.1       0.00       0.00       0.00      0.000      15.00
11:00              15          0          0         85       13.3     754.60       13.3       10.8    1019.89       -6.2       2.41      0.000       2.41       1.34      0.471       13.3        8.1       0.00       0.00       0.00      0.000      15.00
11:15              15          0          0         83       13.8     754.60       13.8       11.0    1019.96       -6.7       2.37      0.000       2.37       1.20      0.434       13.8        8.1       0.00       0.00       0.00      0.000      15.00
11:30              15          0          0         81       14.5     754.60       14.5       11.3    1019.82       -7.1       2.43      0.000       2.43       1.15      0.229       14.5        8.1       0.00       0.00       0.00      0.000      15.00
11:45              13          0          3         80       14.9     754.60       14.9       11.5    1019.85       -6.4       2.28      0.000       2.28       1.10      0.212       14.9        8.1       0.00       0.00       0.00      0.000      15.00
12:00              13          0          0         78       15.3     754.60       15.3       11.5    1019.89       -6.8       2.07      0.000       2.07       0.80      0.203       15.3        8.1       0.00       0.00       0.00      0.000      15.00

 


 

 

 

Retour accueil